sensor_id;sensor_type;location;lat;lon;timestamp;P1;durP1;ratioP1;P2;durP2;ratioP2
53505;SDS011;39388;50.936;6.848;2023-02-13T00:00:40;13.80;;;8.13;;
53505;SDS011;39388;50.936;6.848;2023-02-13T00:03:11;13.23;;;8.20;;
53505;SDS011;39388;50.936;6.848;2023-02-13T00:05:41;12.07;;;8.45;;
53505;SDS011;39388;50.936;6.848;2023-02-13T00:08:11;15.00;;;8.10;;
53505;SDS011;39388;50.936;6.848;2023-02-13T00:10:42;13.43;;;7.90;;
53505;SDS011;39388;50.936;6.848;2023-02-13T00:13:12;14.05;;;8.18;;
53505;SDS011;39388;50.936;6.848;2023-02-13T00:15:43;14.48;;;9.30;;
53505;SDS011;39388;50.936;6.848;2023-02-13T00:18:13;12.23;;;8.68;;
53505;SDS011;39388;50.936;6.848;2023-02-13T00:20:43;14.23;;;9.18;;
53505;SDS011;39388;50.936;6.848;2023-02-13T00:23:14;13.75;;;9.18;;
53505;SDS011;39388;50.936;6.848;2023-02-13T00:25:44;14.13;;;8.75;;
53505;SDS011;39388;50.936;6.848;2023-02-13T00:28:14;15.15;;;9.32;;
53505;SDS011;39388;50.936;6.848;2023-02-13T00:30:45;14.75;;;8.95;;
53505;SDS011;39388;50.936;6.848;2023-02-13T00:33:15;13.60;;;8.43;;
53505;SDS011;39388;50.936;6.848;2023-02-13T00:35:45;13.85;;;9.38;;
53505;SDS011;39388;50.936;6.848;2023-02-13T00:38:16;15.63;;;9.20;;
53505;SDS011;39388;50.936;6.848;2023-02-13T00:40:46;14.93;;;9.10;;
53505;SDS011;39388;50.936;6.848;2023-02-13T00:43:16;15.43;;;8.98;;
53505;SDS011;39388;50.936;6.848;2023-02-13T00:45:47;13.45;;;8.57;;
53505;SDS011;39388;50.936;6.848;2023-02-13T00:48:17;13.90;;;8.70;;
53505;SDS011;39388;50.936;6.848;2023-02-13T00:50:47;13.90;;;8.65;;
53505;SDS011;39388;50.936;6.848;2023-02-13T00:53:19;13.45;;;8.60;;
53505;SDS011;39388;50.936;6.848;2023-02-13T00:55:50;14.23;;;9.10;;
53505;SDS011;39388;50.936;6.848;2023-02-13T00:58:21;15.18;;;8.50;;
53505;SDS011;39388;50.936;6.848;2023-02-13T01:00:52;13.20;;;8.57;;
53505;SDS011;39388;50.936;6.848;2023-02-13T01:03:23;13.35;;;8.95;;
53505;SDS011;39388;50.936;6.848;2023-02-13T01:05:55;14.73;;;9.07;;
53505;SDS011;39388;50.936;6.848;2023-02-13T01:08:26;14.57;;;8.80;;
53505;SDS011;39388;50.936;6.848;2023-02-13T01:11:00;18.27;;;11.05;;
53505;SDS011;39388;50.936;6.848;2023-02-13T01:13:33;18.85;;;11.85;;
53505;SDS011;39388;50.936;6.848;2023-02-13T01:16:03;17.88;;;11.07;;
53505;SDS011;39388;50.936;6.848;2023-02-13T01:18:34;24.50;;;14.20;;
53505;SDS011;39388;50.936;6.848;2023-02-13T01:21:05;13.18;;;8.50;;
53505;SDS011;39388;50.936;6.848;2023-02-13T01:23:37;14.18;;;8.55;;
53505;SDS011;39388;50.936;6.848;2023-02-13T01:26:10;13.18;;;7.95;;
53505;SDS011;39388;50.936;6.848;2023-02-13T01:28:46;12.88;;;7.60;;
53505;SDS011;39388;50.936;6.848;2023-02-13T01:31:17;13.27;;;9.13;;
53505;SDS011;39388;50.936;6.848;2023-02-13T01:33:47;11.30;;;7.68;;
53505;SDS011;39388;50.936;6.848;2023-02-13T01:36:17;9.77;;;7.13;;
53505;SDS011;39388;50.936;6.848;2023-02-13T01:38:51;11.25;;;7.47;;
53505;SDS011;39388;50.936;6.848;2023-02-13T01:41:23;12.32;;;7.07;;
53505;SDS011;39388;50.936;6.848;2023-02-13T01:43:55;12.50;;;7.38;;
53505;SDS011;39388;50.936;6.848;2023-02-13T01:46:34;11.60;;;7.30;;
53505;SDS011;39388;50.936;6.848;2023-02-13T01:49:16;10.32;;;7.22;;
53505;SDS011;39388;50.936;6.848;2023-02-13T01:51:49;10.02;;;7.35;;
53505;SDS011;39388;50.936;6.848;2023-02-13T01:54:25;10.80;;;7.53;;
53505;SDS011;39388;50.936;6.848;2023-02-13T01:57:02;9.75;;;7.43;;
53505;SDS011;39388;50.936;6.848;2023-02-13T01:59:45;11.93;;;7.35;;
53505;SDS011;39388;50.936;6.848;2023-02-13T02:02:21;9.45;;;6.97;;
53505;SDS011;39388;50.936;6.848;2023-02-13T02:04:52;10.65;;;7.28;;
53505;SDS011;39388;50.936;6.848;2023-02-13T02:07:23;9.68;;;7.28;;
53505;SDS011;39388;50.936;6.848;2023-02-13T02:09:58;10.55;;;7.35;;
53505;SDS011;39388;50.936;6.848;2023-02-13T02:12:34;11.50;;;8.20;;
53505;SDS011;39388;50.936;6.848;2023-02-13T02:15:05;9.90;;;7.30;;
53505;SDS011;39388;50.936;6.848;2023-02-13T02:17:36;10.20;;;7.25;;
53505;SDS011;39388;50.936;6.848;2023-02-13T02:23:05;10.38;;;7.43;;
53505;SDS011;39388;50.936;6.848;2023-02-13T02:37:17;10.15;;;7.47;;
53505;SDS011;39388;50.936;6.848;2023-02-13T02:48:25;9.80;;;7.43;;
53505;SDS011;39388;50.936;6.848;2023-02-13T02:57:33;12.55;;;7.50;;
53505;SDS011;39388;50.936;6.848;2023-02-13T03:00:27;12.15;;;7.68;;
53505;SDS011;39388;50.936;6.848;2023-02-13T03:03:18;10.60;;;7.43;;
53505;SDS011;39388;50.936;6.848;2023-02-13T03:06:52;12.13;;;8.20;;
53505;SDS011;39388;50.936;6.848;2023-02-13T03:09:26;12.57;;;7.38;;
53505;SDS011;39388;50.936;6.848;2023-02-13T03:12:19;10.75;;;7.40;;
53505;SDS011;39388;50.936;6.848;2023-02-13T03:15:12;9.57;;;7.47;;
53505;SDS011;39388;50.936;6.848;2023-02-13T03:17:42;12.63;;;8.40;;
53505;SDS011;39388;50.936;6.848;2023-02-13T03:29:43;10.98;;;7.38;;
53505;SDS011;39388;50.936;6.848;2023-02-13T03:35:49;11.43;;;8.25;;
53505;SDS011;39388;50.936;6.848;2023-02-13T03:38:41;12.38;;;7.70;;
53505;SDS011;39388;50.936;6.848;2023-02-13T03:44:02;13.77;;;9.10;;
53505;SDS011;39388;50.936;6.848;2023-02-13T03:46:39;11.63;;;8.35;;
53505;SDS011;39388;50.936;6.848;2023-02-13T03:49:20;11.45;;;8.27;;
53505;SDS011;39388;50.936;6.848;2023-02-13T03:52:14;11.23;;;8.30;;
53505;SDS011;39388;50.936;6.848;2023-02-13T03:55:03;11.48;;;8.30;;
53505;SDS011;39388;50.936;6.848;2023-02-13T03:57:57;12.43;;;8.20;;
53505;SDS011;39388;50.936;6.848;2023-02-13T04:00:51;12.18;;;8.52;;
53505;SDS011;39388;50.936;6.848;2023-02-13T04:09:22;12.32;;;8.80;;
53505;SDS011;39388;50.936;6.848;2023-02-13T04:14:46;11.65;;;8.50;;
53505;SDS011;39388;50.936;6.848;2023-02-13T04:17:44;12.55;;;8.70;;
53505;SDS011;39388;50.936;6.848;2023-02-13T04:20:15;12.65;;;9.25;;
53505;SDS011;39388;50.936;6.848;2023-02-13T04:22:46;12.55;;;8.25;;
53505;SDS011;39388;50.936;6.848;2023-02-13T04:25:17;13.02;;;9.63;;
53505;SDS011;39388;50.936;6.848;2023-02-13T04:27:48;12.43;;;9.07;;
53505;SDS011;39388;50.936;6.848;2023-02-13T04:30:19;15.52;;;9.40;;
53505;SDS011;39388;50.936;6.848;2023-02-13T04:32:49;14.55;;;9.02;;
53505;SDS011;39388;50.936;6.848;2023-02-13T04:35:21;13.10;;;9.55;;
53505;SDS011;39388;50.936;6.848;2023-02-13T04:37:52;12.52;;;9.13;;
53505;SDS011;39388;50.936;6.848;2023-02-13T04:40:22;13.25;;;9.48;;
53505;SDS011;39388;50.936;6.848;2023-02-13T04:42:53;13.48;;;9.52;;
53505;SDS011;39388;50.936;6.848;2023-02-13T04:45:24;12.30;;;8.68;;
53505;SDS011;39388;50.936;6.848;2023-02-13T04:47:54;14.45;;;9.60;;
53505;SDS011;39388;50.936;6.848;2023-02-13T04:50:26;12.80;;;8.77;;
53505;SDS011;39388;50.936;6.848;2023-02-13T04:52:56;14.57;;;9.80;;
53505;SDS011;39388;50.936;6.848;2023-02-13T04:55:27;14.07;;;9.88;;
53505;SDS011;39388;50.936;6.848;2023-02-13T04:57:58;14.93;;;9.55;;
53505;SDS011;39388;50.936;6.848;2023-02-13T05:00:28;14.63;;;9.60;;
53505;SDS011;39388;50.936;6.848;2023-02-13T05:03:01;13.55;;;10.07;;
53505;SDS011;39388;50.936;6.848;2023-02-13T05:05:34;13.85;;;9.88;;
53505;SDS011;39388;50.936;6.848;2023-02-13T05:08:05;14.85;;;10.25;;
53505;SDS011;39388;50.936;6.848;2023-02-13T05:10:36;13.43;;;9.27;;
53505;SDS011;39388;50.936;6.848;2023-02-13T05:13:07;15.65;;;10.43;;
53505;SDS011;39388;50.936;6.848;2023-02-13T05:15:37;15.18;;;10.05;;
53505;SDS011;39388;50.936;6.848;2023-02-13T05:18:07;15.32;;;10.00;;
53505;SDS011;39388;50.936;6.848;2023-02-13T05:20:38;16.30;;;11.15;;
53505;SDS011;39388;50.936;6.848;2023-02-13T05:23:12;13.30;;;8.85;;
53505;SDS011;39388;50.936;6.848;2023-02-13T05:25:52;16.17;;;10.63;;
53505;SDS011;39388;50.936;6.848;2023-02-13T05:28:23;13.82;;;10.25;;
53505;SDS011;39388;50.936;6.848;2023-02-13T05:31:12;12.80;;;9.38;;
53505;SDS011;39388;50.936;6.848;2023-02-13T05:33:42;15.02;;;10.43;;
53505;SDS011;39388;50.936;6.848;2023-02-13T05:36:13;15.48;;;10.27;;
53505;SDS011;39388;50.936;6.848;2023-02-13T05:38:43;13.77;;;9.60;;
53505;SDS011;39388;50.936;6.848;2023-02-13T05:41:13;18.40;;;11.25;;
53505;SDS011;39388;50.936;6.848;2023-02-13T05:43:44;15.50;;;11.23;;
53505;SDS011;39388;50.936;6.848;2023-02-13T05:46:14;16.58;;;11.60;;
53505;SDS011;39388;50.936;6.848;2023-02-13T05:48:44;14.10;;;9.95;;
53505;SDS011;39388;50.936;6.848;2023-02-13T05:51:15;16.67;;;10.90;;
53505;SDS011;39388;50.936;6.848;2023-02-13T05:53:45;15.63;;;11.02;;
53505;SDS011;39388;50.936;6.848;2023-02-13T05:56:15;13.77;;;10.23;;
53505;SDS011;39388;50.936;6.848;2023-02-13T05:58:46;16.17;;;11.40;;
53505;SDS011;39388;50.936;6.848;2023-02-13T06:01:16;14.48;;;10.00;;
53505;SDS011;39388;50.936;6.848;2023-02-13T06:03:47;17.38;;;11.10;;
53505;SDS011;39388;50.936;6.848;2023-02-13T06:06:18;17.30;;;10.85;;
53505;SDS011;39388;50.936;6.848;2023-02-13T06:08:48;15.95;;;10.32;;
53505;SDS011;39388;50.936;6.848;2023-02-13T06:11:19;17.00;;;10.55;;
53505;SDS011;39388;50.936;6.848;2023-02-13T06:13:49;14.48;;;9.98;;
53505;SDS011;39388;50.936;6.848;2023-02-13T06:16:20;17.63;;;11.25;;
53505;SDS011;39388;50.936;6.848;2023-02-13T06:18:51;15.65;;;10.38;;
53505;SDS011;39388;50.936;6.848;2023-02-13T06:21:21;15.65;;;10.85;;
53505;SDS011;39388;50.936;6.848;2023-02-13T06:23:52;15.43;;;10.38;;
53505;SDS011;39388;50.936;6.848;2023-02-13T06:26:22;14.60;;;10.25;;
53505;SDS011;39388;50.936;6.848;2023-02-13T06:28:53;16.30;;;9.95;;
53505;SDS011;39388;50.936;6.848;2023-02-13T06:31:23;14.98;;;9.60;;
53505;SDS011;39388;50.936;6.848;2023-02-13T06:33:54;14.93;;;9.63;;
53505;SDS011;39388;50.936;6.848;2023-02-13T06:36:24;16.10;;;10.30;;
53505;SDS011;39388;50.936;6.848;2023-02-13T06:38:54;14.93;;;9.98;;
53505;SDS011;39388;50.936;6.848;2023-02-13T06:41:25;13.73;;;10.43;;
53505;SDS011;39388;50.936;6.848;2023-02-13T06:43:55;17.52;;;10.80;;
53505;SDS011;39388;50.936;6.848;2023-02-13T06:46:26;13.27;;;8.95;;
53505;SDS011;39388;50.936;6.848;2023-02-13T06:48:56;15.32;;;10.00;;
53505;SDS011;39388;50.936;6.848;2023-02-13T06:51:26;16.08;;;10.00;;
53505;SDS011;39388;50.936;6.848;2023-02-13T06:53:57;16.38;;;10.20;;
53505;SDS011;39388;50.936;6.848;2023-02-13T06:56:27;12.55;;;9.32;;
53505;SDS011;39388;50.936;6.848;2023-02-13T06:58:57;13.85;;;9.38;;
53505;SDS011;39388;50.936;6.848;2023-02-13T07:01:28;14.23;;;10.25;;
53505;SDS011;39388;50.936;6.848;2023-02-13T07:03:58;15.77;;;9.70;;
53505;SDS011;39388;50.936;6.848;2023-02-13T07:06:29;14.93;;;9.23;;
53505;SDS011;39388;50.936;6.848;2023-02-13T07:09:00;13.40;;;9.18;;
53505;SDS011;39388;50.936;6.848;2023-02-13T07:11:33;15.35;;;10.30;;
53505;SDS011;39388;50.936;6.848;2023-02-13T07:14:07;13.70;;;9.45;;
53505;SDS011;39388;50.936;6.848;2023-02-13T07:16:38;13.30;;;9.43;;
53505;SDS011;39388;50.936;6.848;2023-02-13T07:19:09;14.98;;;9.80;;
53505;SDS011;39388;50.936;6.848;2023-02-13T07:21:39;11.95;;;9.07;;
53505;SDS011;39388;50.936;6.848;2023-02-13T07:24:09;13.10;;;9.75;;
53505;SDS011;39388;50.936;6.848;2023-02-13T07:26:40;13.88;;;9.57;;
53505;SDS011;39388;50.936;6.848;2023-02-13T07:29:10;12.90;;;9.05;;
53505;SDS011;39388;50.936;6.848;2023-02-13T07:31:40;13.13;;;9.50;;
53505;SDS011;39388;50.936;6.848;2023-02-13T07:34:11;14.02;;;9.23;;
53505;SDS011;39388;50.936;6.848;2023-02-13T07:36:41;11.90;;;8.65;;
53505;SDS011;39388;50.936;6.848;2023-02-13T07:39:12;13.48;;;9.20;;
53505;SDS011;39388;50.936;6.848;2023-02-13T07:41:42;12.13;;;8.68;;
53505;SDS011;39388;50.936;6.848;2023-02-13T07:44:12;14.52;;;9.98;;
53505;SDS011;39388;50.936;6.848;2023-02-13T07:46:43;11.90;;;9.38;;
53505;SDS011;39388;50.936;6.848;2023-02-13T07:49:13;13.93;;;8.27;;
53505;SDS011;39388;50.936;6.848;2023-02-13T07:51:43;13.27;;;8.70;;
53505;SDS011;39388;50.936;6.848;2023-02-13T07:54:14;13.40;;;8.95;;
53505;SDS011;39388;50.936;6.848;2023-02-13T07:56:44;11.18;;;8.40;;
53505;SDS011;39388;50.936;6.848;2023-02-13T07:59:14;13.57;;;8.90;;
53505;SDS011;39388;50.936;6.848;2023-02-13T08:01:45;12.90;;;9.70;;
53505;SDS011;39388;50.936;6.848;2023-02-13T08:04:15;14.40;;;9.20;;
53505;SDS011;39388;50.936;6.848;2023-02-13T08:06:46;13.45;;;9.48;;
53505;SDS011;39388;50.936;6.848;2023-02-13T08:09:17;13.05;;;9.18;;
53505;SDS011;39388;50.936;6.848;2023-02-13T08:12:08;14.27;;;8.90;;
53505;SDS011;39388;50.936;6.848;2023-02-13T08:14:38;12.35;;;7.82;;
53505;SDS011;39388;50.936;6.848;2023-02-13T08:17:09;13.88;;;9.65;;
53505;SDS011;39388;50.936;6.848;2023-02-13T08:19:39;13.50;;;9.63;;
53505;SDS011;39388;50.936;6.848;2023-02-13T08:22:10;12.20;;;8.70;;
53505;SDS011;39388;50.936;6.848;2023-02-13T08:24:40;12.82;;;9.02;;
53505;SDS011;39388;50.936;6.848;2023-02-13T08:27:14;12.73;;;9.15;;
53505;SDS011;39388;50.936;6.848;2023-02-13T08:29:44;15.15;;;8.70;;
53505;SDS011;39388;50.936;6.848;2023-02-13T08:32:15;12.75;;;8.85;;
53505;SDS011;39388;50.936;6.848;2023-02-13T08:34:45;11.88;;;8.82;;
53505;SDS011;39388;50.936;6.848;2023-02-13T08:37:16;12.48;;;8.65;;
53505;SDS011;39388;50.936;6.848;2023-02-13T08:39:47;13.20;;;8.63;;
53505;SDS011;39388;50.936;6.848;2023-02-13T08:42:17;10.60;;;8.15;;
53505;SDS011;39388;50.936;6.848;2023-02-13T08:44:47;10.90;;;8.90;;
53505;SDS011;39388;50.936;6.848;2023-02-13T08:47:18;15.05;;;8.30;;
53505;SDS011;39388;50.936;6.848;2023-02-13T08:49:48;13.30;;;9.02;;
53505;SDS011;39388;50.936;6.848;2023-02-13T08:52:18;14.07;;;8.88;;
53505;SDS011;39388;50.936;6.848;2023-02-13T08:54:49;25.08;;;13.23;;
53505;SDS011;39388;50.936;6.848;2023-02-13T08:57:19;15.48;;;10.23;;
53505;SDS011;39388;50.936;6.848;2023-02-13T08:59:49;18.75;;;8.98;;
53505;SDS011;39388;50.936;6.848;2023-02-13T09:02:20;10.95;;;7.28;;
53505;SDS011;39388;50.936;6.848;2023-02-13T09:04:50;13.80;;;9.18;;
53505;SDS011;39388;50.936;6.848;2023-02-13T09:07:21;10.80;;;7.75;;
53505;SDS011;39388;50.936;6.848;2023-02-13T09:09:51;11.88;;;8.45;;
53505;SDS011;39388;50.936;6.848;2023-02-13T09:12:21;12.20;;;8.63;;
53505;SDS011;39388;50.936;6.848;2023-02-13T09:14:52;11.60;;;8.40;;
53505;SDS011;39388;50.936;6.848;2023-02-13T09:17:22;12.88;;;8.18;;
53505;SDS011;39388;50.936;6.848;2023-02-13T09:19:52;12.95;;;9.15;;
53505;SDS011;39388;50.936;6.848;2023-02-13T09:22:24;11.82;;;8.85;;
53505;SDS011;39388;50.936;6.848;2023-02-13T09:24:54;13.07;;;8.50;;
53505;SDS011;39388;50.936;6.848;2023-02-13T09:27:24;11.60;;;8.38;;
53505;SDS011;39388;50.936;6.848;2023-02-13T09:29:55;11.52;;;8.15;;
53505;SDS011;39388;50.936;6.848;2023-02-13T09:32:25;13.32;;;8.27;;
53505;SDS011;39388;50.936;6.848;2023-02-13T09:34:56;10.18;;;7.57;;
53505;SDS011;39388;50.936;6.848;2023-02-13T09:37:27;12.27;;;8.43;;
53505;SDS011;39388;50.936;6.848;2023-02-13T09:39:57;11.68;;;7.50;;
53505;SDS011;39388;50.936;6.848;2023-02-13T09:42:28;10.82;;;7.35;;
53505;SDS011;39388;50.936;6.848;2023-02-13T09:45:01;11.18;;;7.93;;
53505;SDS011;39388;50.936;6.848;2023-02-13T09:47:35;11.30;;;8.38;;
53505;SDS011;39388;50.936;6.848;2023-02-13T09:50:19;12.65;;;8.60;;
53505;SDS011;39388;50.936;6.848;2023-02-13T09:52:54;13.63;;;7.80;;
53505;SDS011;39388;50.936;6.848;2023-02-13T09:55:31;11.30;;;7.75;;
53505;SDS011;39388;50.936;6.848;2023-02-13T09:58:18;11.73;;;8.60;;
53505;SDS011;39388;50.936;6.848;2023-02-13T10:01:02;10.57;;;7.68;;
53505;SDS011;39388;50.936;6.848;2023-02-13T10:03:43;9.70;;;7.38;;
53505;SDS011;39388;50.936;6.848;2023-02-13T10:17:31;11.32;;;8.15;;
53505;SDS011;39388;50.936;6.848;2023-02-13T10:20:06;10.45;;;7.47;;
53505;SDS011;39388;50.936;6.848;2023-02-13T10:22:48;10.52;;;7.15;;
53505;SDS011;39388;50.936;6.848;2023-02-13T10:25:24;13.65;;;7.85;;
53505;SDS011;39388;50.936;6.848;2023-02-13T10:27:59;16.60;;;7.13;;
53505;SDS011;39388;50.936;6.848;2023-02-13T10:30:35;10.38;;;6.72;;
53505;SDS011;39388;50.936;6.848;2023-02-13T10:33:24;8.80;;;6.00;;
53505;SDS011;39388;50.936;6.848;2023-02-13T10:35:59;8.85;;;6.20;;
53505;SDS011;39388;50.936;6.848;2023-02-13T10:38:30;9.50;;;7.40;;
53505;SDS011;39388;50.936;6.848;2023-02-13T10:41:13;9.25;;;7.10;;
53505;SDS011;39388;50.936;6.848;2023-02-13T10:44:09;8.98;;;6.47;;
53505;SDS011;39388;50.936;6.848;2023-02-13T10:58:00;8.95;;;6.22;;
53505;SDS011;39388;50.936;6.848;2023-02-13T11:03:25;10.05;;;6.38;;
53505;SDS011;39388;50.936;6.848;2023-02-13T11:05:57;9.30;;;6.00;;
53505;SDS011;39388;50.936;6.848;2023-02-13T11:16:56;9.38;;;6.32;;
53505;SDS011;39388;50.936;6.848;2023-02-13T11:19:30;8.88;;;5.88;;
53505;SDS011;39388;50.936;6.848;2023-02-13T11:22:04;7.93;;;5.70;;
53505;SDS011;39388;50.936;6.848;2023-02-13T11:24:51;8.75;;;5.90;;
53505;SDS011;39388;50.936;6.848;2023-02-13T11:27:32;7.15;;;5.60;;
53505;SDS011;39388;50.936;6.848;2023-02-13T11:30:10;7.47;;;5.75;;
53505;SDS011;39388;50.936;6.848;2023-02-13T11:33:05;6.72;;;5.30;;
53505;SDS011;39388;50.936;6.848;2023-02-13T11:35:35;7.30;;;5.22;;
53505;SDS011;39388;50.936;6.848;2023-02-13T11:40:41;8.95;;;5.80;;
53505;SDS011;39388;50.936;6.848;2023-02-13T11:43:57;7.97;;;5.95;;
53505;SDS011;39388;50.936;6.848;2023-02-13T11:46:20;11.48;;;7.72;;
53505;SDS011;39388;50.936;6.848;2023-02-13T11:51:43;7.45;;;5.47;;
53505;SDS011;39388;50.936;6.848;2023-02-13T11:56:49;7.00;;;5.32;;
53505;SDS011;39388;50.936;6.848;2023-02-13T11:59:22;6.55;;;5.30;;
53505;SDS011;39388;50.936;6.848;2023-02-13T12:02:01;10.07;;;6.10;;
53505;SDS011;39388;50.936;6.848;2023-02-13T12:04:33;7.78;;;5.05;;
53505;SDS011;39388;50.936;6.848;2023-02-13T12:07:11;9.77;;;5.00;;
53505;SDS011;39388;50.936;6.848;2023-02-13T12:15:24;6.93;;;4.70;;
53505;SDS011;39388;50.936;6.848;2023-02-13T12:20:52;5.45;;;4.43;;
53505;SDS011;39388;50.936;6.848;2023-02-13T12:26:37;8.50;;;4.90;;
53505;SDS011;39388;50.936;6.848;2023-02-13T12:32:25;5.00;;;4.10;;
53505;SDS011;39388;50.936;6.848;2023-02-13T12:35:13;7.80;;;4.05;;
53505;SDS011;39388;50.936;6.848;2023-02-13T12:41:01;6.22;;;4.30;;
53505;SDS011;39388;50.936;6.848;2023-02-13T12:46:36;5.53;;;4.20;;
53505;SDS011;39388;50.936;6.848;2023-02-13T12:58:14;5.00;;;4.25;;
53505;SDS011;39388;50.936;6.848;2023-02-13T13:03:52;5.13;;;4.07;;
53505;SDS011;39388;50.936;6.848;2023-02-13T13:09:35;4.80;;;3.80;;
53505;SDS011;39388;50.936;6.848;2023-02-13T13:18:09;4.85;;;3.70;;
53505;SDS011;39388;50.936;6.848;2023-02-13T13:23:48;5.10;;;3.70;;
53505;SDS011;39388;50.936;6.848;2023-02-13T13:26:40;7.30;;;3.60;;
53505;SDS011;39388;50.936;6.848;2023-02-13T13:29:25;4.60;;;3.20;;
53505;SDS011;39388;50.936;6.848;2023-02-13T13:32:02;5.22;;;3.53;;
53505;SDS011;39388;50.936;6.848;2023-02-13T13:34:36;5.03;;;3.50;;
53505;SDS011;39388;50.936;6.848;2023-02-13T13:37:23;5.47;;;3.40;;
53505;SDS011;39388;50.936;6.848;2023-02-13T13:43:03;7.00;;;3.70;;
53505;SDS011;39388;50.936;6.848;2023-02-13T13:48:58;3.38;;;3.08;;
53505;SDS011;39388;50.936;6.848;2023-02-13T13:51:41;3.40;;;3.03;;
53505;SDS011;39388;50.936;6.848;2023-02-13T14:07:52;3.42;;;2.40;;
53505;SDS011;39388;50.936;6.848;2023-02-13T14:34:03;21.52;;;5.07;;
53505;SDS011;39388;50.936;6.848;2023-02-13T14:36:37;2.90;;;2.30;;
53505;SDS011;39388;50.936;6.848;2023-02-13T14:42:39;3.17;;;2.03;;
53505;SDS011;39388;50.936;6.848;2023-02-13T14:44:57;2.90;;;2.20;;
53505;SDS011;39388;50.936;6.848;2023-02-13T14:47:36;3.70;;;1.90;;
53505;SDS011;39388;50.936;6.848;2023-02-13T14:50:15;2.30;;;1.85;;
53505;SDS011;39388;50.936;6.848;2023-02-13T14:52:49;3.03;;;1.85;;
53505;SDS011;39388;50.936;6.848;2023-02-13T14:55:32;3.53;;;3.23;;
53505;SDS011;39388;50.936;6.848;2023-02-13T15:00:56;4.57;;;2.35;;
53505;SDS011;39388;50.936;6.848;2023-02-13T15:06:18;2.10;;;1.90;;
53505;SDS011;39388;50.936;6.848;2023-02-13T15:08:55;2.15;;;1.80;;
53505;SDS011;39388;50.936;6.848;2023-02-13T15:11:38;4.93;;;1.83;;
53505;SDS011;39388;50.936;6.848;2023-02-13T15:16:46;5.65;;;1.70;;
53505;SDS011;39388;50.936;6.848;2023-02-13T15:19:20;2.42;;;1.58;;
53505;SDS011;39388;50.936;6.848;2023-02-13T15:21:54;3.67;;;1.83;;
53505;SDS011;39388;50.936;6.848;2023-02-13T15:24:31;2.40;;;1.90;;
53505;SDS011;39388;50.936;6.848;2023-02-13T15:27:06;2.60;;;1.70;;
53505;SDS011;39388;50.936;6.848;2023-02-13T15:29:59;2.45;;;1.50;;
53505;SDS011;39388;50.936;6.848;2023-02-13T15:32:33;3.33;;;1.50;;
53505;SDS011;39388;50.936;6.848;2023-02-13T15:35:20;3.13;;;1.80;;
53505;SDS011;39388;50.936;6.848;2023-02-13T15:37:54;2.60;;;1.92;;
53505;SDS011;39388;50.936;6.848;2023-02-13T15:40:26;2.38;;;1.70;;
53505;SDS011;39388;50.936;6.848;2023-02-13T15:42:58;3.80;;;1.55;;
53505;SDS011;39388;50.936;6.848;2023-02-13T15:45:30;2.25;;;1.67;;
53505;SDS011;39388;50.936;6.848;2023-02-13T15:48:00;3.75;;;1.80;;
53505;SDS011;39388;50.936;6.848;2023-02-13T15:50:32;3.30;;;1.83;;
53505;SDS011;39388;50.936;6.848;2023-02-13T15:53:04;5.32;;;2.40;;
53505;SDS011;39388;50.936;6.848;2023-02-13T15:55:44;3.45;;;2.08;;
53505;SDS011;39388;50.936;6.848;2023-02-13T15:58:33;2.10;;;1.90;;
53505;SDS011;39388;50.936;6.848;2023-02-13T16:01:06;3.00;;;2.05;;
53505;SDS011;39388;50.936;6.848;2023-02-13T16:03:37;2.17;;;1.80;;
53505;SDS011;39388;50.936;6.848;2023-02-13T16:06:14;3.22;;;1.85;;
53505;SDS011;39388;50.936;6.848;2023-02-13T16:08:52;2.28;;;1.63;;
53505;SDS011;39388;50.936;6.848;2023-02-13T16:14:16;6.82;;;2.45;;
53505;SDS011;39388;50.936;6.848;2023-02-13T16:17:05;4.63;;;2.10;;
53505;SDS011;39388;50.936;6.848;2023-02-13T16:19:53;2.08;;;1.80;;
53505;SDS011;39388;50.936;6.848;2023-02-13T16:27:47;13.82;;;3.13;;
53505;SDS011;39388;50.936;6.848;2023-02-13T16:30:27;2.20;;;2.00;;
53505;SDS011;39388;50.936;6.848;2023-02-13T16:33:21;4.65;;;2.30;;
53505;SDS011;39388;50.936;6.848;2023-02-13T16:36:00;4.93;;;2.70;;
53505;SDS011;39388;50.936;6.848;2023-02-13T16:38:47;3.08;;;2.45;;
53505;SDS011;39388;50.936;6.848;2023-02-13T16:43:52;3.90;;;2.60;;
53505;SDS011;39388;50.936;6.848;2023-02-13T16:49:05;4.18;;;2.83;;
53505;SDS011;39388;50.936;6.848;2023-02-13T17:07:46;6.35;;;2.70;;
53505;SDS011;39388;50.936;6.848;2023-02-13T17:12:57;4.13;;;3.15;;
53505;SDS011;39388;50.936;6.848;2023-02-13T17:15:43;4.05;;;2.70;;
53505;SDS011;39388;50.936;6.848;2023-02-13T17:18:14;4.10;;;2.75;;
53505;SDS011;39388;50.936;6.848;2023-02-13T17:20:45;3.88;;;2.90;;
53505;SDS011;39388;50.936;6.848;2023-02-13T17:23:22;4.03;;;2.80;;
53505;SDS011;39388;50.936;6.848;2023-02-13T17:25:53;3.90;;;2.92;;
53505;SDS011;39388;50.936;6.848;2023-02-13T17:28:24;3.88;;;2.95;;
53505;SDS011;39388;50.936;6.848;2023-02-13T17:30:57;6.03;;;3.15;;
53505;SDS011;39388;50.936;6.848;2023-02-13T17:33:29;5.00;;;2.95;;
53505;SDS011;39388;50.936;6.848;2023-02-13T17:36:01;4.70;;;2.90;;
53505;SDS011;39388;50.936;6.848;2023-02-13T17:38:31;3.45;;;2.70;;
53505;SDS011;39388;50.936;6.848;2023-02-13T17:41:02;4.75;;;3.15;;
53505;SDS011;39388;50.936;6.848;2023-02-13T17:43:32;4.28;;;2.90;;
53505;SDS011;39388;50.936;6.848;2023-02-13T17:46:02;3.28;;;2.92;;
53505;SDS011;39388;50.936;6.848;2023-02-13T17:48:33;4.50;;;3.25;;
53505;SDS011;39388;50.936;6.848;2023-02-13T17:51:03;4.00;;;3.47;;
53505;SDS011;39388;50.936;6.848;2023-02-13T17:53:34;5.47;;;3.60;;
53505;SDS011;39388;50.936;6.848;2023-02-13T17:56:05;5.68;;;3.60;;
53505;SDS011;39388;50.936;6.848;2023-02-13T17:58:35;5.15;;;3.80;;
53505;SDS011;39388;50.936;6.848;2023-02-13T18:01:08;3.65;;;3.10;;
53505;SDS011;39388;50.936;6.848;2023-02-13T18:03:39;6.50;;;3.95;;
53505;SDS011;39388;50.936;6.848;2023-02-13T18:06:10;7.97;;;5.65;;
53505;SDS011;39388;50.936;6.848;2023-02-13T18:08:42;7.30;;;5.53;;
53505;SDS011;39388;50.936;6.848;2023-02-13T18:11:12;9.73;;;5.88;;
53505;SDS011;39388;50.936;6.848;2023-02-13T18:13:42;8.10;;;6.57;;
53505;SDS011;39388;50.936;6.848;2023-02-13T18:16:17;10.02;;;7.65;;
53505;SDS011;39388;50.936;6.848;2023-02-13T18:18:47;8.63;;;7.43;;
53505;SDS011;39388;50.936;6.848;2023-02-13T18:21:20;7.00;;;6.30;;
53505;SDS011;39388;50.936;6.848;2023-02-13T18:23:52;8.13;;;5.40;;
53505;SDS011;39388;50.936;6.848;2023-02-13T18:26:22;8.60;;;5.28;;
53505;SDS011;39388;50.936;6.848;2023-02-13T18:28:52;9.23;;;5.93;;
53505;SDS011;39388;50.936;6.848;2023-02-13T18:31:23;7.28;;;5.75;;
53505;SDS011;39388;50.936;6.848;2023-02-13T18:33:53;7.07;;;5.03;;
53505;SDS011;39388;50.936;6.848;2023-02-13T18:36:24;8.77;;;4.88;;
53505;SDS011;39388;50.936;6.848;2023-02-13T18:38:54;7.25;;;4.85;;
53505;SDS011;39388;50.936;6.848;2023-02-13T18:41:24;7.05;;;5.10;;
53505;SDS011;39388;50.936;6.848;2023-02-13T18:43:55;7.03;;;4.93;;
53505;SDS011;39388;50.936;6.848;2023-02-13T18:46:26;7.47;;;5.57;;
53505;SDS011;39388;50.936;6.848;2023-02-13T18:48:57;8.25;;;5.03;;
53505;SDS011;39388;50.936;6.848;2023-02-13T18:51:27;7.20;;;4.72;;
53505;SDS011;39388;50.936;6.848;2023-02-13T18:53:58;7.13;;;4.97;;
53505;SDS011;39388;50.936;6.848;2023-02-13T18:56:29;6.03;;;4.50;;
53505;SDS011;39388;50.936;6.848;2023-02-13T18:58:59;6.85;;;4.47;;
53505;SDS011;39388;50.936;6.848;2023-02-13T19:01:30;5.70;;;4.97;;
53505;SDS011;39388;50.936;6.848;2023-02-13T19:04:00;5.03;;;4.30;;
53505;SDS011;39388;50.936;6.848;2023-02-13T19:06:31;8.30;;;5.20;;